Time;durP1;ratioP1;P1;durP2;ratioP2;P2;SDS_P1;SDS_P2;PMS_P1;PMS_P2;Temp;Humidity;BMP_temperature;BMP_pressure;BME280_temperature;BME280_humidity;BME280_pressure;Samples;Min_cycle;Max_cycle;Signal;HPM_P1;HPM_P2
2022/11/25 00:01:42;;;;;;;12.80;4.80;;;;;;;3.22;100.00;100697.47;5109491;27;20100;-88
2022/11/25 00:04:10;;;;;;;22.52;5.95;;;;;;;3.25;100.00;100713.94;5099402;28;20040;-83
2022/11/25 00:06:38;;;;;;;8.07;4.50;;;;;;;3.28;100.00;100702.78;5104375;28;20422;-84
2022/11/25 00:09:13;;;;;;;15.63;5.55;;;;;;;3.30;100.00;100704.56;5110990;28;20039;-87
2022/11/25 00:11:42;;;;;;;13.27;4.55;;;;;;;3.31;100.00;100706.34;5096947;28;20474;-86
2022/11/25 00:14:15;;;;;;;6.68;3.45;;;;;;;3.32;100.00;100702.00;5104373;28;20060;-85
2022/11/25 00:16:43;;;;;;;6.65;4.00;;;;;;;3.30;100.00;100699.41;5097063;28;20039;-84
2022/11/25 00:19:11;;;;;;;22.33;4.47;;;;;;;3.33;100.00;100703.78;5100324;28;20067;-84
2022/11/25 00:21:39;;;;;;;6.95;4.45;;;;;;;3.34;100.00;100695.19;5080945;27;20138;-85
2022/11/25 00:24:07;;;;;;;6.13;3.47;;;;;;;3.35;100.00;100677.91;5100924;28;21364;-86
2022/11/25 00:26:36;;;;;;;7.10;3.78;;;;;;;3.34;100.00;100681.34;5105087;28;20101;-85
2022/11/25 00:29:05;;;;;;;13.88;5.00;;;;;;;3.30;100.00;100668.34;5072220;28;20050;-86
2022/11/25 00:31:40;;;;;;;9.73;4.35;;;;;;;3.33;100.00;100670.13;5103213;28;20092;-87
2022/11/25 00:34:09;;;;;;;7.82;3.25;;;;;;;3.36;100.00;100665.00;5105155;28;20060;-86
2022/11/25 00:36:38;;;;;;;13.07;4.10;;;;;;;3.35;100.00;100659.81;5116564;28;20026;-86
2022/11/25 00:39:16;;;;;;;8.27;4.00;;;;;;;3.35;100.00;100660.69;5124509;28;20065;-89
2022/11/25 00:44:35;;;;;;;13.23;4.22;;;;;;;3.35;100.00;100681.41;5121180;28;20031;-84
2022/11/25 00:47:22;;;;;;;6.97;3.47;;;;;;;3.36;100.00;100677.09;5115392;28;20045;-85
2022/11/25 00:49:54;;;;;;;9.43;4.43;;;;;;;3.33;100.00;100666.69;5096253;28;20108;-85
2022/11/25 00:52:26;;;;;;;12.82;4.60;;;;;;;3.33;100.00;100670.13;5102863;28;20139;-86
2022/11/25 00:55:00;;;;;;;5.43;4.10;;;;;;;3.33;100.00;100674.44;5086491;28;20050;-87
2022/11/25 00:57:29;;;;;;;9.38;3.45;;;;;;;3.34;100.00;100669.31;5081662;28;20420;-86
2022/11/25 00:59:58;;;;;;;5.95;3.45;;;;;;;3.33;100.00;100674.44;5112844;28;20111;-86
2022/11/25 01:02:25;;;;;;;13.05;4.20;;;;;;;3.33;100.00;100667.53;5080380;28;20047;-85
2022/11/25 01:04:53;;;;;;;8.63;3.40;;;;;;;3.30;100.00;100668.34;5099991;28;20388;-85
2022/11/25 01:07:20;;;;;;;6.13;3.33;;;;;;;3.29;100.00;100670.91;5087193;28;20054;-85
2022/11/25 01:09:48;;;;;;;11.15;3.45;;;;;;;3.26;100.00;100676.91;5084832;28;20064;-85
2022/11/25 01:12:14;;;;;;;6.45;3.72;;;;;;;3.25;100.00;100675.16;5099957;28;20503;-85
2022/11/25 01:14:42;;;;;;;7.32;3.70;;;;;;;3.23;100.00;100666.47;5095021;28;20657;-85
2022/11/25 01:17:09;;;;;;;7.50;3.75;;;;;;;3.20;100.00;100671.59;5099650;28;20137;-84
2022/11/25 01:19:38;;;;;;;5.45;3.42;;;;;;;3.18;100.00;100674.97;5100728;28;20056;-85
2022/11/25 01:22:08;;;;;;;4.43;3.03;;;;;;;3.18;100.00;100677.56;5101020;27;20056;-83
2022/11/25 01:24:35;;;;;;;15.02;4.20;;;;;;;3.14;100.00;100679.22;5098370;27;20109;-85
2022/11/25 01:27:02;;;;;;;8.95;3.97;;;;;;;3.13;100.00;100680.94;5100754;28;20036;-85
2022/11/25 01:29:28;;;;;;;4.22;2.88;;;;;;;3.13;100.00;100677.47;5101858;28;20056;-84
2022/11/25 01:31:56;;;;;;;5.90;4.07;;;;;;;3.11;100.00;100679.16;5100326;28;20662;-82
2022/11/25 01:34:26;;;;;;;8.18;3.58;;;;;;;3.12;100.00;100680.91;5089413;28;20044;-84
2022/11/25 01:36:54;;;;;;;7.90;3.80;;;;;;;3.13;100.00;100675.75;5077114;28;20051;-85
2022/11/25 01:39:24;;;;;;;13.60;4.10;;;;;;;3.14;100.00;100677.50;5105931;28;20100;-85
2022/11/25 01:41:51;;;;;;;13.98;3.75;;;;;;;3.17;100.00;100679.28;5093513;27;20214;-83
2022/11/25 01:44:22;;;;;;;7.25;3.38;;;;;;;3.20;100.00;100675.91;5113088;27;20039;-83
2022/11/25 01:47:12;;;;;;;4.57;2.50;;;;;;;3.24;100.00;100675.13;5104633;28;20098;-84
2022/11/25 01:50:05;;;;;;;9.18;3.40;;;;;;;3.25;100.00;100663.94;5116548;27;20043;-85
2022/11/25 01:52:40;;;;;;;5.93;2.95;;;;;;;3.28;100.00;100671.75;5113894;27;20126;-86
2022/11/25 01:55:21;;;;;;;8.10;3.03;;;;;;;3.26;100.00;100671.72;5090693;27;20054;-86
2022/11/25 01:58:01;;;;;;;14.32;3.58;;;;;;;3.25;100.00;100669.09;5110211;28;20095;-83
2022/11/25 02:00:27;;;;;;;5.22;3.08;;;;;;;3.26;100.00;100674.31;5114331;27;20075;-85
2022/11/25 02:02:55;;;;;;;9.52;2.88;;;;;;;3.27;100.00;100672.59;5093198;28;20710;-87
2022/11/25 02:05:40;;;;;;;9.40;2.72;;;;;;;3.27;100.00;100672.59;5098939;27;20045;-82
2022/11/25 02:08:08;;;;;;;12.63;3.35;;;;;;;3.26;100.00;100663.97;5113080;27;20043;-83
2022/11/25 02:10:35;;;;;;;7.03;3.47;;;;;;;3.27;100.00;100667.41;5116727;27;20031;-85
2022/11/25 02:13:03;;;;;;;11.30;2.85;;;;;;;3.28;100.00;100669.16;5107306;28;20065;-84
2022/11/25 02:15:36;;;;;;;5.63;2.97;;;;;;;3.29;100.00;100668.31;5079525;27;20051;-85
2022/11/25 02:18:05;;;;;;;13.63;3.13;;;;;;;3.31;100.00;100670.09;5109256;27;20039;-83
2022/11/25 02:20:40;;;;;;;9.38;3.00;;;;;;;3.34;100.00;100668.41;5111659;27;20093;-84
2022/11/25 02:23:27;;;;;;;5.45;2.58;;;;;;;3.36;100.00;100661.56;5105330;28;20101;-85
2022/11/25 02:29:12;;;;;;;3.55;2.63;;;;;;;3.38;100.00;100650.41;5079031;28;20032;-84
2022/11/25 02:32:23;;;;;;;10.38;2.95;;;;;;;3.38;100.00;100644.38;5134791;27;20055;-84
2022/11/25 02:37:38;;;;;;;11.40;3.13;;;;;;;3.36;100.00;100659.84;5114634;27;20097;-84
2022/11/25 02:40:06;;;;;;;6.95;2.80;;;;;;;3.38;100.00;100655.56;5075718;27;20543;-86
2022/11/25 02:42:33;;;;;;;5.70;1.92;;;;;;;3.34;100.00;100651.19;5081623;28;20040;-88
2022/11/25 02:45:00;;;;;;;9.75;2.70;;;;;;;3.31;100.00;100644.22;5093326;27;20042;-85
2022/11/25 02:47:27;;;;;;;9.25;2.97;;;;;;;3.28;100.00;100657.09;5081673;27;20764;-85
2022/11/25 02:49:53;;;;;;;10.27;3.35;;;;;;;3.28;100.00;100640.69;5106051;27;20084;-85
2022/11/25 02:52:20;;;;;;;6.28;2.35;;;;;;;3.26;100.00;100637.19;5089523;28;20120;-86
2022/11/25 02:54:48;;;;;;;11.07;2.72;;;;;;;3.24;100.00;100639.75;5100929;27;20109;-87
2022/11/25 02:57:15;;;;;;;4.60;2.30;;;;;;;3.23;100.00;100648.34;5104437;27;20035;-86
2022/11/25 02:59:42;;;;;;;8.50;2.35;;;;;;;3.20;100.00;100647.44;5100435;27;20046;-84
2022/11/25 03:02:09;;;;;;;6.28;2.10;;;;;;;3.23;100.00;100652.66;5075710;28;20134;-83
2022/11/25 03:04:35;;;;;;;6.00;3.22;;;;;;;3.22;100.00;100645.75;5101492;28;20039;-89
2022/11/25 03:07:05;;;;;;;14.82;2.45;;;;;;;3.23;100.00;100642.31;5121930;27;20035;-85
2022/11/25 03:09:31;;;;;;;8.30;2.30;;;;;;;3.25;100.00;100644.09;5104771;28;20742;-83
2022/11/25 03:14:45;;;;;;;10.13;2.22;;;;;;;3.29;100.00;100642.47;5097042;27;20585;-84
2022/11/25 03:17:28;;;;;;;5.70;2.08;;;;;;;3.31;100.00;100644.22;5101299;27;20107;-85
2022/11/25 03:19:57;;;;;;;6.75;1.95;;;;;;;3.34;100.00;100642.53;5118170;27;20062;-87
2022/11/25 03:22:27;;;;;;;3.28;2.17;;;;;;;3.33;100.00;100639.09;5070412;28;20052;-89
2022/11/25 03:25:02;;;;;;;5.07;1.60;;;;;;;3.34;100.00;100639.94;5095331;27;20047;-84
2022/11/25 03:30:17;;;;;;;9.18;3.13;;;;;;;3.34;100.00;100645.13;5095531;27;20081;-86
2022/11/25 03:32:45;;;;;;;8.48;1.98;;;;;;;3.34;100.00;100645.13;5104550;28;20040;-85
2022/11/25 03:35:12;;;;;;;4.25;1.67;;;;;;;3.36;100.00;100635.69;5093666;27;20046;-85
2022/11/25 03:37:39;;;;;;;7.05;2.53;;;;;;;3.35;100.00;100628.75;5099482;28;20035;-86
2022/11/25 03:40:08;;;;;;;6.20;2.17;;;;;;;3.37;100.00;100634.84;5097747;27;20861;-86
2022/11/25 03:42:35;;;;;;;6.72;2.38;;;;;;;3.39;100.00;100636.63;5078681;28;20062;-85
2022/11/25 03:45:03;;;;;;;6.70;2.03;;;;;;;3.39;100.00;100628.88;5086619;27;20043;-85
2022/11/25 03:47:30;;;;;;;6.50;2.35;;;;;;;3.40;100.00;100632.31;5100484;28;20039;-88
2022/11/25 03:49:57;;;;;;;7.35;2.35;;;;;;;3.42;100.00;100636.69;5089554;28;20040;-84
2022/11/25 03:52:24;;;;;;;5.00;1.83;;;;;;;3.43;100.00;100640.16;5095157;28;20130;-86
2022/11/25 03:54:50;;;;;;;10.75;2.50;;;;;;;3.41;100.00;100631.47;5086318;28;20040;-86
2022/11/25 03:57:20;;;;;;;8.30;1.92;;;;;;;3.40;100.00;100629.72;5091518;27;20047;-87
2022/11/25 03:59:46;;;;;;;16.83;3.22;;;;;;;3.39;100.00;100628.88;5107310;27;20063;-85
2022/11/25 04:02:13;;;;;;;8.77;3.25;;;;;;;3.38;100.00;100627.13;5082281;28;20086;-85
2022/11/25 04:04:40;;;;;;;4.07;2.20;;;;;;;3.38;100.00;100621.06;5106684;27;20039;-84
2022/11/25 04:07:12;;;;;;;8.82;2.17;;;;;;;3.36;100.00;100631.38;5103719;28;20069;-85
2022/11/25 04:09:39;;;;;;;5.28;2.08;;;;;;;3.36;100.00;100633.09;5096564;28;20087;-85
2022/11/25 04:14:55;;;;;;;7.22;2.58;;;;;;;3.33;100.00;100638.22;5102898;28;20074;-87
2022/11/25 04:17:22;;;;;;;10.43;2.85;;;;;;;3.33;100.00;100641.66;5089066;28;20070;-87
2022/11/25 04:19:48;;;;;;;8.45;2.65;;;;;;;3.33;100.00;100636.50;5108671;28;20478;-85
2022/11/25 04:22:15;;;;;;;7.40;2.45;;;;;;;3.37;100.00;100640.88;5086760;28;20046;-82
2022/11/25 04:24:41;;;;;;;6.15;2.80;;;;;;;3.37;100.00;100637.44;5085442;28;20554;-85
2022/11/25 04:27:08;;;;;;;9.02;2.42;;;;;;;3.41;100.00;100637.50;5113038;28;20431;-87
2022/11/25 04:29:34;;;;;;;12.45;3.38;;;;;;;3.44;100.00;100629.84;5109961;28;20097;-85
2022/11/25 04:32:01;;;;;;;13.65;4.32;;;;;;;3.49;100.00;100632.50;5107779;28;20047;-83
2022/11/25 04:34:28;;;;;;;7.07;2.65;;;;;;;3.54;100.00;100630.00;5074434;28;20400;-86
2022/11/25 04:36:54;;;;;;;9.23;2.65;;;;;;;3.58;100.00;100634.41;5111303;28;20566;-85
2022/11/25 04:39:21;;;;;;;9.57;2.63;;;;;;;3.59;100.00;100624.06;5105999;28;20043;-85
2022/11/25 04:41:48;;;;;;;6.97;2.72;;;;;;;3.60;100.00;100624.97;5105409;28;20546;-88
2022/11/25 04:44:15;;;;;;;6.20;2.53;;;;;;;3.59;100.00;100628.38;5098907;28;20077;-85
2022/11/25 04:46:43;;;;;;;9.40;2.67;;;;;;;3.55;100.00;100617.09;5111261;28;20582;-86
2022/11/25 04:49:11;;;;;;;6.13;2.42;;;;;;;3.56;100.00;100618.84;5096690;28;20127;-86
2022/11/25 04:51:38;;;;;;;7.57;2.28;;;;;;;3.54;100.00;100633.47;5086261;28;20460;-86
2022/11/25 04:54:05;;;;;;;5.93;2.05;;;;;;;3.53;100.00;100634.28;5095823;28;20059;-86
2022/11/25 04:56:31;;;;;;;4.90;2.28;;;;;;;3.52;100.00;100629.09;5097268;27;21184;-87
2022/11/25 05:01:43;;;;;;;7.22;3.22;;;;;;;3.51;100.00;100632.50;5098663;27;20177;-86
2022/11/25 05:04:10;;;;;;;6.03;2.30;;;;;;;3.50;100.00;100628.22;5081806;28;20055;-86
2022/11/25 05:06:37;;;;;;;6.63;2.53;;;;;;;3.51;100.00;100627.34;5081527;27;20074;-86
2022/11/25 05:09:05;;;;;;;8.95;3.95;;;;;;;3.49;100.00;100619.56;5083779;27;20043;-88
2022/11/25 05:11:32;;;;;;;10.63;2.80;;;;;;;3.53;100.00;100617.91;5117212;27;20067;-87
2022/11/25 05:13:59;;;;;;;10.55;2.97;;;;;;;3.51;100.00;100624.75;5114003;27;20044;-84
2022/11/25 05:16:26;;;;;;;17.60;3.13;;;;;;;3.51;100.00;100620.47;5098127;27;20097;-87
2022/11/25 05:18:56;;;;;;;9.80;2.65;;;;;;;3.55;100.00;100624.00;5098853;27;20519;-84
2022/11/25 05:21:24;;;;;;;10.63;3.65;;;;;;;3.57;100.00;100617.13;5097410;27;20035;-86
2022/11/25 05:23:50;;;;;;;10.77;3.20;;;;;;;3.56;100.00;100615.38;5094307;27;20064;-86
2022/11/25 05:26:17;;;;;;;5.78;3.17;;;;;;;3.55;100.00;100609.31;5096830;28;20032;-87
2022/11/25 05:28:44;;;;;;;7.32;2.45;;;;;;;3.58;100.00;100619.72;5113447;28;20065;-84
2022/11/25 05:31:11;;;;;;;4.72;2.03;;;;;;;3.58;100.00;100622.31;5077686;28;20603;-85
2022/11/25 05:33:38;;;;;;;7.38;2.63;;;;;;;3.55;100.00;100614.50;5112049;27;20051;-85
2022/11/25 05:36:06;;;;;;;11.27;2.70;;;;;;;3.58;100.00;100608.50;5113833;27;20035;-88
2022/11/25 05:38:32;;;;;;;5.63;2.58;;;;;;;3.64;100.00;100617.25;5112932;27;20035;-86
2022/11/25 05:41:05;;;;;;;11.77;3.60;;;;;;;3.75;100.00;100621.78;5111566;28;20040;-86
2022/11/25 05:43:33;;;;;;;6.90;2.75;;;;;;;3.84;100.00;100611.56;5113234;27;20040;-86
2022/11/25 05:45:59;;;;;;;6.78;2.22;;;;;;;3.84;100.00;100603.81;5096372;28;20104;-85
2022/11/25 05:48:26;;;;;;;7.90;3.38;;;;;;;3.82;100.00;100602.94;5100073;27;20040;-86
2022/11/25 05:50:53;;;;;;;9.98;3.05;;;;;;;3.83;100.00;100601.19;5116195;27;20051;-86
2022/11/25 05:53:20;;;;;;;9.93;2.80;;;;;;;3.85;100.00;100607.28;5091344;28;20146;-86
2022/11/25 05:55:57;;;;;;;8.55;2.13;;;;;;;3.86;100.00;100607.31;5116652;27;20405;-86
2022/11/25 05:58:24;;;;;;;13.20;3.58;;;;;;;3.85;100.00;100609.88;5119660;27;20114;-86
2022/11/25 06:00:51;;;;;;;7.30;2.60;;;;;;;3.86;100.00;100614.19;5112582;28;20112;-86
2022/11/25 06:03:19;;;;;;;11.80;2.50;;;;;;;3.91;100.00;100618.63;5083257;28;20052;-87
2022/11/25 06:05:46;;;;;;;11.35;3.40;;;;;;;4.01;100.00;100613.59;5101993;27;20043;-86
2022/11/25 06:08:13;;;;;;;11.63;2.75;;;;;;;4.10;100.00;100612.03;5084685;28;20043;-85
2022/11/25 06:10:40;;;;;;;12.35;3.58;;;;;;;4.17;100.00;100612.13;5114635;27;20059;-86
2022/11/25 06:13:09;;;;;;;7.35;2.42;;;;;;;4.23;100.00;100609.66;5112863;27;20078;-88
2022/11/25 06:15:45;;;;;;;9.15;2.97;;;;;;;4.32;100.00;100611.53;5113659;27;20055;-87
2022/11/25 06:18:14;;;;;;;12.65;3.55;;;;;;;4.37;100.00;100615.91;5119874;27;20084;-88
2022/11/25 06:20:41;;;;;;;9.13;3.25;;;;;;;4.41;100.00;100615.13;5111118;28;20107;-88
2022/11/25 06:23:09;;;;;;;5.70;2.88;;;;;;;4.46;100.00;100618.66;5110807;27;20133;-86
2022/11/25 06:25:36;;;;;;;7.30;2.88;;;;;;;4.50;100.00;100623.88;5091230;28;20047;-85
2022/11/25 06:28:04;;;;;;;7.88;2.38;;;;;;;4.54;100.00;100623.09;5095617;27;20048;-86
2022/11/25 06:30:31;;;;;;;5.78;2.67;;;;;;;4.58;100.00;100635.25;5111489;27;20047;-86
2022/11/25 06:33:03;;;;;;;5.00;2.28;;;;;;;4.61;100.00;100627.50;5109054;27;20043;-84
2022/11/25 06:35:30;;;;;;;11.30;3.38;;;;;;;4.64;100.00;100636.22;5091211;27;20079;-86
2022/11/25 06:37:59;;;;;;;5.45;2.05;;;;;;;4.68;100.00;100639.72;5111911;27;20087;-88
2022/11/25 06:40:26;;;;;;;10.65;3.22;;;;;;;4.71;100.00;100647.53;5115080;27;20040;-88
2022/11/25 06:42:53;;;;;;;13.70;3.13;;;;;;;4.74;100.00;100644.97;5114151;28;20065;-86
2022/11/25 06:45:20;;;;;;;14.95;3.53;;;;;;;4.75;100.00;100646.72;5119765;27;20039;-86
2022/11/25 06:47:47;;;;;;;13.77;3.97;;;;;;;4.77;100.00;100646.75;5114868;27;20066;-86
2022/11/25 06:50:13;;;;;;;8.73;2.60;;;;;;;4.80;100.00;100644.22;5085527;27;20075;-87
2022/11/25 06:52:41;;;;;;;8.20;2.30;;;;;;;4.83;100.00;100643.41;5100764;27;20095;-87
2022/11/25 06:55:08;;;;;;;10.15;2.17;;;;;;;4.87;100.00;100643.44;5105852;28;20143;-87
2022/11/25 06:57:35;;;;;;;14.65;3.60;;;;;;;4.89;100.00;100646.94;5110865;27;20073;-85
2022/11/25 07:00:02;;;;;;;6.97;2.38;;;;;;;4.93;100.00;100656.50;5081240;27;20123;-87
2022/11/25 07:02:29;;;;;;;8.82;2.72;;;;;;;4.94;100.00;100649.59;5111326;27;20284;-87
2022/11/25 07:04:56;;;;;;;6.30;2.53;;;;;;;4.97;100.00;100653.09;5105692;28;20036;-86
2022/11/25 07:07:23;;;;;;;7.57;2.90;;;;;;;4.99;100.00;100647.94;5111169;27;20058;-87
2022/11/25 07:09:49;;;;;;;3.90;1.77;;;;;;;5.01;100.00;100654.03;5112192;27;20058;-86
2022/11/25 07:12:16;;;;;;;8.98;2.08;;;;;;;5.02;100.00;100649.69;5112097;28;20077;-86
2022/11/25 07:14:45;;;;;;;6.75;2.92;;;;;;;5.05;100.00;100649.75;5112226;28;20120;-88
2022/11/25 07:17:12;;;;;;;9.52;4.20;;;;;;;5.06;100.00;100654.06;5111377;28;20105;-88
2022/11/25 07:19:40;;;;;;;6.35;3.33;;;;;;;5.08;100.00;100662.75;5114463;27;20040;-85
2022/11/25 07:22:08;;;;;;;7.03;2.30;;;;;;;5.09;100.00;100660.19;5104633;28;20431;-88
2022/11/25 07:24:36;;;;;;;7.50;2.25;;;;;;;5.11;100.00;100662.78;5102063;28;20039;-87
2022/11/25 07:27:05;;;;;;;4.57;2.08;;;;;;;5.11;100.00;100661.09;5113091;27;20043;-85
2022/11/25 07:29:35;;;;;;;6.18;2.50;;;;;;;5.13;100.00;100656.78;5080118;27;20051;-84
2022/11/25 07:32:02;;;;;;;17.60;3.28;;;;;;;5.17;100.00;100668.06;5082656;28;20085;-84
2022/11/25 07:34:37;;;;;;;6.97;2.85;;;;;;;5.21;100.00;100675.03;5088261;27;20044;-86
2022/11/25 07:37:04;;;;;;;11.35;3.30;;;;;;;5.25;100.00;100678.56;5106253;27;20048;-84
2022/11/25 07:39:31;;;;;;;11.50;2.67;;;;;;;5.29;100.00;100689.00;5102858;27;20032;-87
2022/11/25 07:41:58;;;;;;;6.55;2.42;;;;;;;5.33;100.00;100691.63;5100352;28;20035;-85
2022/11/25 07:44:27;;;;;;;6.45;1.77;;;;;;;5.37;100.00;100696.91;5085104;28;20060;-85
2022/11/25 07:46:54;;;;;;;9.65;2.65;;;;;;;5.37;100.00;100689.13;5101624;27;20042;-86
2022/11/25 07:49:28;;;;;;;9.75;2.53;;;;;;;5.38;100.00;100700.34;5099552;27;20180;-85
2022/11/25 07:51:59;;;;;;;10.18;2.88;;;;;;;5.40;100.00;100703.88;5106227;27;20111;-84
2022/11/25 07:54:32;;;;;;;6.78;2.40;;;;;;;5.41;100.00;100701.28;5127572;27;20044;-85
2022/11/25 07:56:59;;;;;;;9.27;3.00;;;;;;;5.45;100.00;100715.19;5126125;28;20035;-90
2022/11/25 07:59:26;;;;;;;14.32;3.60;;;;;;;5.48;100.00;100707.41;5094707;28;20047;-84
2022/11/25 08:01:55;;;;;;;18.92;4.70;;;;;;;5.51;100.00;100711.78;5106808;28;20044;-84
2022/11/25 08:04:24;;;;;;;14.40;2.70;;;;;;;5.52;100.00;100711.78;5080065;27;20119;-86
2022/11/25 08:06:56;;;;;;;11.75;2.53;;;;;;;5.56;100.00;100720.50;5099905;27;20051;-86
2022/11/25 08:09:24;;;;;;;8.70;2.55;;;;;;;5.57;100.00;100723.09;5116980;27;20055;-84
2022/11/25 08:11:52;;;;;;;9.80;3.20;;;;;;;5.60;100.00;100725.72;5104579;28;20043;-85
2022/11/25 08:14:20;;;;;;;6.63;2.90;;;;;;;5.63;100.00;100727.50;5076933;28;20047;-86
2022/11/25 08:16:48;;;;;;;18.63;3.60;;;;;;;5.67;100.00;100726.72;5073729;27;20061;-85
2022/11/25 08:19:19;;;;;;;11.35;3.25;;;;;;;5.72;100.00;100721.56;5085713;28;20532;-83
2022/11/25 08:21:48;;;;;;;5.47;2.38;;;;;;;5.75;100.00;100725.06;5124105;27;20053;-85
2022/11/25 08:24:21;;;;;;;5.97;2.15;;;;;;;5.78;100.00;100719.03;5102625;28;20038;-84
2022/11/25 08:26:53;;;;;;;;;;;;;;;5.84;100.00;100729.50;5101893;28;20055;-87
2022/11/25 08:29:20;;;;;;;3.35;2.08;;;;;;;5.87;100.00;100726.06;5086423;28;20006;-86
2022/11/25 08:31:49;;;;;;;6.80;2.35;;;;;;;5.93;100.00;100724.41;5110211;27;20458;-85
2022/11/25 08:34:25;;;;;;;8.43;2.45;;;;;;;5.99;100.00;100727.97;5119039;27;20078;-86
2022/11/25 08:36:54;;;;;;;7.80;2.80;;;;;;;6.03;100.00;100730.59;5097670;28;20123;-85
2022/11/25 08:39:22;;;;;;;17.33;4.15;;;;;;;6.07;100.00;100731.50;5118192;27;20071;-85
2022/11/25 08:41:50;;;;;;;6.97;2.53;;;;;;;6.10;100.00;100739.31;5099758;28;20138;-87
2022/11/25 08:44:18;;;;;;;7.38;2.60;;;;;;;6.14;100.00;100733.34;5114602;28;20068;-86
2022/11/25 08:46:47;;;;;;;8.98;2.22;;;;;;;6.19;100.00;100731.66;5096613;28;20051;-84
2022/11/25 08:49:18;;;;;;;8.43;2.13;;;;;;;6.21;100.00;100734.28;5093433;28;20055;-83
2022/11/25 08:51:45;;;;;;;5.97;2.05;;;;;;;6.23;100.00;100737.72;5088585;28;20047;-84
2022/11/25 08:54:13;;;;;;;10.85;3.17;;;;;;;6.26;100.00;100740.38;5107641;27;20052;-83
2022/11/25 08:56:43;;;;;;;8.68;2.75;;;;;;;6.27;100.00;100748.19;5089971;28;20035;-85
2022/11/25 08:59:10;;;;;;;10.93;2.75;;;;;;;6.29;100.00;100735.19;5111749;27;20046;-85
2022/11/25 09:01:36;;;;;;;8.75;3.00;;;;;;;6.31;100.00;100738.72;5102651;27;20043;-85
2022/11/25 09:04:03;;;;;;;5.65;2.67;;;;;;;6.33;100.00;100744.78;5117961;27;20486;-90
2022/11/25 09:06:33;;;;;;;5.63;2.03;;;;;;;6.33;100.00;100747.38;5109460;27;20093;-84
2022/11/25 09:09:00;;;;;;;8.88;3.05;;;;;;;6.35;100.00;100757.78;5103031;28;20115;-87
2022/11/25 09:11:29;;;;;;;5.68;3.13;;;;;;;6.35;100.00;100758.69;5127976;27;20067;-86
2022/11/25 09:13:57;;;;;;;4.75;3.35;;;;;;;6.36;100.00;100752.63;5106258;27;20143;-84
2022/11/25 09:16:24;;;;;;;10.63;2.72;;;;;;;6.38;100.00;100766.50;5112941;27;20047;-85
2022/11/25 09:18:55;;;;;;;6.35;1.98;;;;;;;6.40;100.00;100767.41;5115557;27;20035;-88
2022/11/25 09:21:28;;;;;;;9.23;3.85;;;;;;;6.42;100.00;100763.06;5136162;27;20058;-85
2022/11/25 09:23:55;;;;;;;6.88;2.33;;;;;;;6.45;100.00;100762.22;5108150;27;20102;-86
2022/11/25 09:26:29;;;;;;;12.23;3.00;;;;;;;6.50;100.00;100770.94;5091168;28;20053;-84
2022/11/25 09:28:56;;;;;;;7.35;3.05;;;;;;;6.53;100.00;100778.78;5117605;28;20048;-84
2022/11/25 09:31:25;;;;;;;9.05;3.10;;;;;;;6.53;100.00;100781.41;5119964;27;20055;-84
2022/11/25 09:33:52;;;;;;;9.30;2.88;;;;;;;6.54;100.00;100777.06;5112066;27;20031;-84
2022/11/25 09:36:20;;;;;;;13.27;3.90;;;;;;;6.53;100.00;100785.69;5102430;27;20043;-84
2022/11/25 09:38:50;;;;;;;6.47;3.45;;;;;;;6.50;100.00;100793.50;5112684;27;20139;-84
2022/11/25 09:48:06;;;;;;;7.18;2.45;;;;;;;6.38;100.00;100799.44;5118852;27;20040;-85
2022/11/25 09:51:07;;;;;;;6.18;2.55;;;;;;;6.33;100.00;100801.97;5109399;27;20046;-86
2022/11/25 09:53:54;;;;;;;9.45;3.47;;;;;;;6.28;100.00;100793.25;5115229;27;20059;-87
2022/11/25 09:56:34;;;;;;;9.77;3.38;;;;;;;6.27;100.00;100788.91;5116113;27;20043;-83
2022/11/25 09:59:11;;;;;;;7.65;2.38;;;;;;;6.26;100.00;100800.19;5126551;27;20074;-82
2022/11/25 10:01:52;;;;;;;7.20;3.20;;;;;;;6.23;100.00;100797.53;5125888;27;20040;-85
2022/11/25 10:04:43;;;;;;;7.22;3.78;;;;;;;6.22;100.00;100801.88;5111113;28;20044;-85
2022/11/25 10:07:34;;;;;;;13.95;4.60;;;;;;;6.22;100.00;100804.47;5118873;28;20058;-83
2022/11/25 10:10:05;;;;;;;9.82;2.88;;;;;;;6.20;100.00;100803.56;5123110;27;20035;-85
2022/11/25 10:12:44;;;;;;;9.00;2.38;;;;;;;6.18;100.00;100804.41;5112641;27;20051;-84
2022/11/25 10:15:24;;;;;;;3.88;2.40;;;;;;;6.18;100.00;100805.28;5098783;28;20056;-84
2022/11/25 10:17:56;;;;;;;5.57;3.50;;;;;;;6.17;100.00;100815.69;5093895;28;20163;-86
2022/11/25 10:20:40;;;;;;;6.90;3.35;;;;;;;6.17;100.00;100808.72;5121247;27;20047;-85
2022/11/25 10:23:24;;;;;;;8.05;2.83;;;;;;;6.18;100.00;100807.00;5159513;27;20039;-88
2022/11/25 10:25:57;;;;;;;;;;;;;;;6.19;100.00;100812.25;5120621;28;20173;-83
2022/11/25 10:28:33;;;;;;;7.18;2.83;;;;;;;6.20;100.00;100808.75;5077725;28;19931;-83
2022/11/25 10:31:19;;;;;;;10.00;3.60;;;;;;;6.23;100.00;100808.81;5102100;28;20052;-82
2022/11/25 10:33:53;;;;;;;6.32;3.03;;;;;;;6.31;100.00;100810.59;5071832;28;20074;-82
2022/11/25 10:36:48;;;;;;;6.47;2.40;;;;;;;6.42;100.00;100811.59;5082285;27;20072;-85
2022/11/25 10:39:27;;;;;;;6.50;3.78;;;;;;;6.55;100.00;100816.06;5122979;27;20047;-85
2022/11/25 10:42:08;;;;;;;13.63;3.88;;;;;;;6.66;100.00;100813.56;5087572;28;20032;-85
2022/11/25 10:44:41;;;;;;;12.23;4.82;;;;;;;6.76;100.00;100814.53;5121418;27;20422;-83
2022/11/25 10:47:42;;;;;;;8.40;3.88;;;;;;;6.77;100.00;100817.16;5109267;27;20043;-83
2022/11/25 10:50:37;;;;;;;11.18;4.10;;;;;;;6.78;100.00;100823.25;5097336;27;20069;-83
2022/11/25 10:53:16;;;;;;;8.77;3.70;;;;;;;6.77;100.00;100818.91;5096074;28;20127;-85
2022/11/25 10:56:07;;;;;;;9.77;2.60;;;;;;;6.76;100.00;100818.00;5106861;27;20052;-86
2022/11/25 10:58:41;;;;;;;6.57;3.40;;;;;;;6.74;100.00;100829.25;5109775;27;20064;-84
2022/11/25 11:01:20;;;;;;;13.98;3.88;;;;;;;6.72;100.00;100824.03;5102838;28;20070;-84
2022/11/25 11:04:13;;;;;;;7.60;3.65;;;;;;;6.73;100.00;100822.34;5101271;27;20097;-83
2022/11/25 11:06:45;;;;;;;10.07;3.43;;;;;;;6.73;100.00;100825.78;5097147;28;20135;-87
2022/11/25 11:09:39;;;;;;;7.97;4.22;;;;;;;6.78;100.00;100831.06;5099986;27;20048;-84
2022/11/25 11:12:18;;;;;;;7.77;3.33;;;;;;;6.83;100.00;100828.47;5106652;28;20119;-83
2022/11/25 11:14:49;;;;;;;7.60;3.13;;;;;;;6.84;100.00;100840.63;5109353;27;20039;-85
2022/11/25 11:17:35;;;;;;;7.40;3.00;;;;;;;6.86;100.00;100831.13;5108358;27;20098;-83
2022/11/25 11:20:14;;;;;;;8.32;3.47;;;;;;;6.87;100.00;100825.03;5122686;27;20043;-85
2022/11/25 11:22:57;;;;;;;14.98;3.92;;;;;;;6.92;100.00;100833.75;5106292;27;20442;-84
2022/11/25 11:25:39;;;;;;;9.13;3.83;;;;;;;6.96;100.00;100825.13;5108124;27;20044;-85
2022/11/25 11:28:31;;;;;;;8.88;3.72;;;;;;;7.03;100.00;100834.75;5115442;27;20055;-86
2022/11/25 11:31:44;;;;;;;14.85;4.32;;;;;;;7.08;100.00;100838.25;5106314;27;20047;-85
2022/11/25 11:34:38;;;;;;;10.05;4.50;;;;;;;7.15;100.00;100838.31;5112384;27;20035;-85
2022/11/25 11:37:33;;;;;;;8.45;5.18;;;;;;;7.23;100.00;100842.69;5102735;27;20413;-88
2022/11/25 11:40:38;;;;;;;6.40;3.55;;;;;;;7.28;100.00;100835.78;5113847;27;20118;-83
2022/11/25 11:43:29;;;;;;;6.63;3.67;;;;;;;7.32;100.00;100833.22;5107078;27;20057;-88
2022/11/25 11:46:31;;;;;;;11.20;4.40;;;;;;;7.35;100.00;100841.06;5110387;28;20027;-83
2022/11/25 11:49:19;;;;;;;6.07;3.67;;;;;;;7.37;100.00;100837.59;5093144;27;20479;-84
2022/11/25 11:52:32;;;;;;;9.50;4.82;;;;;;;7.38;100.00;100841.97;5109057;28;20036;-84
2022/11/25 11:55:18;;;;;;;12.48;5.03;;;;;;;7.40;100.00;100844.56;5102174;28;20043;-84
2022/11/25 11:58:04;;;;;;;18.25;5.95;;;;;;;7.44;100.00;100843.72;5113052;28;20077;-83
2022/11/25 12:00:40;;;;;;;10.05;4.70;;;;;;;7.47;100.00;100843.75;5111529;28;20075;-82
2022/11/25 12:03:17;;;;;;;22.65;6.15;;;;;;;7.50;100.00;100840.31;5106137;28;20457;-83
2022/11/25 12:05:44;;;;;;;13.57;6.05;;;;;;;7.48;100.00;100840.28;5103891;28;20043;-84
2022/11/25 12:08:26;;;;;;;25.52;8.27;;;;;;;7.45;100.00;100845.47;5112377;27;20035;-85
2022/11/25 12:11:19;;;;;;;13.45;6.30;;;;;;;7.43;100.00;100847.19;5078368;28;20043;-83
2022/11/25 12:14:03;;;;;;;24.55;8.65;;;;;;;7.47;100.00;100848.09;5083741;27;20039;-82